sensor_id;sensor_type;location;lat;lon;timestamp;P1;durP1;ratioP1;P2;durP2;ratioP2
31990;SDS011;18508;49.386;8.370;2024-01-11T00:01:44;77.20;;;29.77;;
31990;SDS011;18508;49.386;8.370;2024-01-11T00:04:17;71.45;;;28.55;;
31990;SDS011;18508;49.386;8.370;2024-01-11T00:06:46;77.28;;;29.02;;
31990;SDS011;18508;49.386;8.370;2024-01-11T00:09:14;72.28;;;28.90;;
31990;SDS011;18508;49.386;8.370;2024-01-11T00:11:44;76.45;;;28.98;;
31990;SDS011;18508;49.386;8.370;2024-01-11T00:14:12;67.85;;;29.35;;
31990;SDS011;18508;49.386;8.370;2024-01-11T00:16:41;70.80;;;29.63;;
31990;SDS011;18508;49.386;8.370;2024-01-11T00:19:09;71.80;;;30.35;;
31990;SDS011;18508;49.386;8.370;2024-01-11T00:21:42;77.75;;;31.92;;
31990;SDS011;18508;49.386;8.370;2024-01-11T00:24:10;74.68;;;30.42;;
31990;SDS011;18508;49.386;8.370;2024-01-11T00:26:39;77.47;;;30.00;;
31990;SDS011;18508;49.386;8.370;2024-01-11T00:29:08;71.10;;;31.15;;
31990;SDS011;18508;49.386;8.370;2024-01-11T00:31:36;75.57;;;29.25;;
31990;SDS011;18508;49.386;8.370;2024-01-11T00:34:05;76.85;;;30.90;;
31990;SDS011;18508;49.386;8.370;2024-01-11T00:36:34;69.43;;;28.17;;
31990;SDS011;18508;49.386;8.370;2024-01-11T00:39:06;70.07;;;28.67;;
31990;SDS011;18508;49.386;8.370;2024-01-11T00:41:34;78.72;;;30.42;;
31990;SDS011;18508;49.386;8.370;2024-01-11T00:44:03;79.88;;;29.95;;
31990;SDS011;18508;49.386;8.370;2024-01-11T00:46:31;78.50;;;30.05;;
31990;SDS011;18508;49.386;8.370;2024-01-11T00:49:01;80.55;;;30.60;;
31990;SDS011;18508;49.386;8.370;2024-01-11T00:51:30;69.18;;;29.25;;
31990;SDS011;18508;49.386;8.370;2024-01-11T00:53:59;68.40;;;29.92;;
31990;SDS011;18508;49.386;8.370;2024-01-11T00:56:30;72.80;;;29.92;;
31990;SDS011;18508;49.386;8.370;2024-01-11T00:58:58;76.25;;;29.83;;
31990;SDS011;18508;49.386;8.370;2024-01-11T01:01:26;74.40;;;29.95;;
31990;SDS011;18508;49.386;8.370;2024-01-11T01:03:55;72.25;;;29.95;;
31990;SDS011;18508;49.386;8.370;2024-01-11T01:06:23;77.60;;;30.70;;
31990;SDS011;18508;49.386;8.370;2024-01-11T01:08:52;74.15;;;29.83;;
31990;SDS011;18508;49.386;8.370;2024-01-11T01:11:21;73.22;;;28.73;;
31990;SDS011;18508;49.386;8.370;2024-01-11T01:13:51;75.30;;;29.05;;
31990;SDS011;18508;49.386;8.370;2024-01-11T01:16:19;75.70;;;31.52;;
31990;SDS011;18508;49.386;8.370;2024-01-11T01:18:47;77.97;;;30.50;;
31990;SDS011;18508;49.386;8.370;2024-01-11T01:21:15;79.38;;;30.92;;
31990;SDS011;18508;49.386;8.370;2024-01-11T01:23:44;77.70;;;32.10;;
31990;SDS011;18508;49.386;8.370;2024-01-11T01:26:13;79.88;;;29.35;;
31990;SDS011;18508;49.386;8.370;2024-01-11T01:28:41;78.97;;;30.88;;
31990;SDS011;18508;49.386;8.370;2024-01-11T01:31:11;78.25;;;30.00;;
31990;SDS011;18508;49.386;8.370;2024-01-11T01:33:40;71.18;;;29.60;;
31990;SDS011;18508;49.386;8.370;2024-01-11T01:36:09;72.97;;;29.92;;
31990;SDS011;18508;49.386;8.370;2024-01-11T01:38:38;73.10;;;30.20;;
31990;SDS011;18508;49.386;8.370;2024-01-11T01:41:06;78.22;;;30.45;;
31990;SDS011;18508;49.386;8.370;2024-01-11T01:43:35;77.45;;;31.25;;
31990;SDS011;18508;49.386;8.370;2024-01-11T01:46:04;81.38;;;30.63;;
31990;SDS011;18508;49.386;8.370;2024-01-11T01:48:35;76.75;;;30.08;;
31990;SDS011;18508;49.386;8.370;2024-01-11T01:51:04;69.63;;;29.50;;
31990;SDS011;18508;49.386;8.370;2024-01-11T01:53:34;75.32;;;30.05;;
31990;SDS011;18508;49.386;8.370;2024-01-11T01:56:03;80.38;;;29.60;;
31990;SDS011;18508;49.386;8.370;2024-01-11T01:58:33;75.20;;;30.88;;
31990;SDS011;18508;49.386;8.370;2024-01-11T02:01:01;80.15;;;31.13;;
31990;SDS011;18508;49.386;8.370;2024-01-11T02:03:32;75.72;;;31.08;;
31990;SDS011;18508;49.386;8.370;2024-01-11T02:06:04;85.40;;;32.55;;
31990;SDS011;18508;49.386;8.370;2024-01-11T02:08:33;77.93;;;30.55;;
31990;SDS011;18508;49.386;8.370;2024-01-11T02:11:03;77.55;;;31.55;;
31990;SDS011;18508;49.386;8.370;2024-01-11T02:13:31;81.25;;;33.65;;
31990;SDS011;18508;49.386;8.370;2024-01-11T02:16:00;78.30;;;31.40;;
31990;SDS011;18508;49.386;8.370;2024-01-11T02:18:28;83.70;;;32.13;;
31990;SDS011;18508;49.386;8.370;2024-01-11T02:20:58;80.07;;;31.95;;
31990;SDS011;18508;49.386;8.370;2024-01-11T02:23:27;77.85;;;32.50;;
31990;SDS011;18508;49.386;8.370;2024-01-11T02:25:57;77.95;;;32.75;;
31990;SDS011;18508;49.386;8.370;2024-01-11T02:28:25;83.28;;;31.45;;
31990;SDS011;18508;49.386;8.370;2024-01-11T02:30:53;85.68;;;33.15;;
31990;SDS011;18508;49.386;8.370;2024-01-11T02:33:22;87.90;;;33.75;;
31990;SDS011;18508;49.386;8.370;2024-01-11T02:35:51;80.05;;;31.25;;
31990;SDS011;18508;49.386;8.370;2024-01-11T02:38:19;85.85;;;32.42;;
31990;SDS011;18508;49.386;8.370;2024-01-11T02:40:48;78.20;;;31.58;;
31990;SDS011;18508;49.386;8.370;2024-01-11T02:43:19;79.78;;;31.77;;
31990;SDS011;18508;49.386;8.370;2024-01-11T02:45:47;85.03;;;31.02;;
31990;SDS011;18508;49.386;8.370;2024-01-11T02:48:15;81.95;;;33.53;;
31990;SDS011;18508;49.386;8.370;2024-01-11T02:50:43;84.57;;;33.67;;
31990;SDS011;18508;49.386;8.370;2024-01-11T02:53:12;84.53;;;33.75;;
31990;SDS011;18508;49.386;8.370;2024-01-11T02:55:41;83.75;;;33.05;;
31990;SDS011;18508;49.386;8.370;2024-01-11T02:58:10;85.57;;;34.13;;
31990;SDS011;18508;49.386;8.370;2024-01-11T03:00:40;79.32;;;31.48;;
31990;SDS011;18508;49.386;8.370;2024-01-11T03:03:08;80.15;;;33.67;;
31990;SDS011;18508;49.386;8.370;2024-01-11T03:05:36;82.97;;;34.10;;
31990;SDS011;18508;49.386;8.370;2024-01-11T03:08:06;93.57;;;34.10;;
31990;SDS011;18508;49.386;8.370;2024-01-11T03:10:36;87.05;;;33.47;;
31990;SDS011;18508;49.386;8.370;2024-01-11T03:13:05;83.22;;;33.22;;
31990;SDS011;18508;49.386;8.370;2024-01-11T03:15:33;83.38;;;32.70;;
31990;SDS011;18508;49.386;8.370;2024-01-11T03:18:03;74.80;;;32.45;;
31990;SDS011;18508;49.386;8.370;2024-01-11T03:20:32;81.53;;;33.25;;
31990;SDS011;18508;49.386;8.370;2024-01-11T03:23:01;83.43;;;32.25;;
31990;SDS011;18508;49.386;8.370;2024-01-11T03:25:30;74.63;;;31.50;;
31990;SDS011;18508;49.386;8.370;2024-01-11T03:27:58;92.53;;;32.33;;
31990;SDS011;18508;49.386;8.370;2024-01-11T03:30:27;86.97;;;33.03;;
31990;SDS011;18508;49.386;8.370;2024-01-11T03:32:55;87.50;;;34.72;;
31990;SDS011;18508;49.386;8.370;2024-01-11T03:35:25;85.22;;;34.38;;
31990;SDS011;18508;49.386;8.370;2024-01-11T03:37:53;82.45;;;33.20;;
31990;SDS011;18508;49.386;8.370;2024-01-11T03:40:22;87.03;;;34.28;;
31990;SDS011;18508;49.386;8.370;2024-01-11T03:42:50;77.70;;;31.67;;
31990;SDS011;18508;49.386;8.370;2024-01-11T03:45:18;81.22;;;31.15;;
31990;SDS011;18508;49.386;8.370;2024-01-11T03:47:47;84.57;;;32.55;;
31990;SDS011;18508;49.386;8.370;2024-01-11T03:50:16;83.80;;;33.17;;
31990;SDS011;18508;49.386;8.370;2024-01-11T03:52:47;87.35;;;33.42;;
31990;SDS011;18508;49.386;8.370;2024-01-11T03:55:15;90.63;;;35.08;;
31990;SDS011;18508;49.386;8.370;2024-01-11T03:57:43;92.32;;;35.65;;
31990;SDS011;18508;49.386;8.370;2024-01-11T04:00:12;84.63;;;32.92;;
31990;SDS011;18508;49.386;8.370;2024-01-11T04:02:43;93.30;;;34.20;;
31990;SDS011;18508;49.386;8.370;2024-01-11T04:05:11;94.95;;;36.17;;
31990;SDS011;18508;49.386;8.370;2024-01-11T04:07:40;89.10;;;33.75;;
31990;SDS011;18508;49.386;8.370;2024-01-11T04:10:10;84.30;;;33.08;;
31990;SDS011;18508;49.386;8.370;2024-01-11T04:12:38;85.93;;;33.35;;
31990;SDS011;18508;49.386;8.370;2024-01-11T04:15:07;76.13;;;32.22;;
31990;SDS011;18508;49.386;8.370;2024-01-11T04:17:35;85.55;;;33.90;;
31990;SDS011;18508;49.386;8.370;2024-01-11T04:20:04;82.40;;;33.90;;
31990;SDS011;18508;49.386;8.370;2024-01-11T04:22:34;83.10;;;31.80;;
31990;SDS011;18508;49.386;8.370;2024-01-11T04:25:03;85.13;;;33.45;;
31990;SDS011;18508;49.386;8.370;2024-01-11T04:27:33;87.53;;;33.88;;
31990;SDS011;18508;49.386;8.370;2024-01-11T04:30:01;94.07;;;32.65;;
31990;SDS011;18508;49.386;8.370;2024-01-11T04:32:30;81.75;;;30.85;;
31990;SDS011;18508;49.386;8.370;2024-01-11T04:34:59;85.13;;;34.08;;
31990;SDS011;18508;49.386;8.370;2024-01-11T04:37:27;74.38;;;32.67;;
31990;SDS011;18508;49.386;8.370;2024-01-11T04:39:55;83.60;;;33.92;;
31990;SDS011;18508;49.386;8.370;2024-01-11T04:42:26;91.00;;;35.33;;
31990;SDS011;18508;49.386;8.370;2024-01-11T04:44:56;89.00;;;35.35;;
31990;SDS011;18508;49.386;8.370;2024-01-11T04:47:24;89.45;;;35.67;;
31990;SDS011;18508;49.386;8.370;2024-01-11T04:49:53;85.78;;;35.20;;
31990;SDS011;18508;49.386;8.370;2024-01-11T04:52:21;78.72;;;32.00;;
31990;SDS011;18508;49.386;8.370;2024-01-11T04:54:52;84.80;;;34.97;;
31990;SDS011;18508;49.386;8.370;2024-01-11T04:57:20;94.28;;;35.50;;
31990;SDS011;18508;49.386;8.370;2024-01-11T04:59:49;84.95;;;32.63;;
31990;SDS011;18508;49.386;8.370;2024-01-11T05:02:18;79.22;;;32.10;;
31990;SDS011;18508;49.386;8.370;2024-01-11T05:04:50;77.93;;;32.70;;
31990;SDS011;18508;49.386;8.370;2024-01-11T05:07:25;84.65;;;32.72;;
31990;SDS011;18508;49.386;8.370;2024-01-11T05:09:54;85.20;;;31.83;;
31990;SDS011;18508;49.386;8.370;2024-01-11T05:12:22;97.65;;;35.95;;
31990;SDS011;18508;49.386;8.370;2024-01-11T05:14:51;84.60;;;33.83;;
31990;SDS011;18508;49.386;8.370;2024-01-11T05:17:24;85.03;;;35.65;;
31990;SDS011;18508;49.386;8.370;2024-01-11T05:19:54;87.93;;;34.33;;
31990;SDS011;18508;49.386;8.370;2024-01-11T05:22:22;79.47;;;34.10;;
31990;SDS011;18508;49.386;8.370;2024-01-11T05:24:53;85.00;;;35.33;;
31990;SDS011;18508;49.386;8.370;2024-01-11T05:27:22;86.25;;;35.17;;
31990;SDS011;18508;49.386;8.370;2024-01-11T05:29:51;79.88;;;34.88;;
31990;SDS011;18508;49.386;8.370;2024-01-11T05:32:19;89.40;;;34.13;;
31990;SDS011;18508;49.386;8.370;2024-01-11T05:34:49;74.65;;;31.90;;
31990;SDS011;18508;49.386;8.370;2024-01-11T05:37:17;82.00;;;35.40;;
31990;SDS011;18508;49.386;8.370;2024-01-11T05:39:47;87.80;;;33.65;;
31990;SDS011;18508;49.386;8.370;2024-01-11T05:42:16;92.70;;;36.08;;
31990;SDS011;18508;49.386;8.370;2024-01-11T05:44:45;88.03;;;35.00;;
31990;SDS011;18508;49.386;8.370;2024-01-11T05:47:14;80.80;;;32.45;;
31990;SDS011;18508;49.386;8.370;2024-01-11T05:49:43;91.95;;;35.22;;
31990;SDS011;18508;49.386;8.370;2024-01-11T05:52:15;82.53;;;37.20;;
31990;SDS011;18508;49.386;8.370;2024-01-11T05:54:44;85.07;;;35.45;;
31990;SDS011;18508;49.386;8.370;2024-01-11T05:57:13;92.75;;;35.67;;
31990;SDS011;18508;49.386;8.370;2024-01-11T05:59:43;88.20;;;35.00;;
31990;SDS011;18508;49.386;8.370;2024-01-11T06:02:11;95.18;;;35.38;;
31990;SDS011;18508;49.386;8.370;2024-01-11T06:04:40;86.18;;;35.13;;
31990;SDS011;18508;49.386;8.370;2024-01-11T06:07:09;90.93;;;36.08;;
31990;SDS011;18508;49.386;8.370;2024-01-11T06:09:38;92.47;;;34.67;;
31990;SDS011;18508;49.386;8.370;2024-01-11T06:12:09;91.75;;;34.25;;
31990;SDS011;18508;49.386;8.370;2024-01-11T06:14:38;84.15;;;35.55;;
31990;SDS011;18508;49.386;8.370;2024-01-11T06:17:06;97.65;;;36.00;;
31990;SDS011;18508;49.386;8.370;2024-01-11T06:19:37;76.40;;;32.10;;
31990;SDS011;18508;49.386;8.370;2024-01-11T06:22:05;77.93;;;30.40;;
31990;SDS011;18508;49.386;8.370;2024-01-11T06:24:34;86.93;;;34.63;;
31990;SDS011;18508;49.386;8.370;2024-01-11T06:27:03;84.82;;;33.67;;
31990;SDS011;18508;49.386;8.370;2024-01-11T06:29:32;85.63;;;34.92;;
31990;SDS011;18508;49.386;8.370;2024-01-11T06:32:00;88.55;;;33.70;;
31990;SDS011;18508;49.386;8.370;2024-01-11T06:34:29;92.13;;;36.45;;
31990;SDS011;18508;49.386;8.370;2024-01-11T06:36:58;85.57;;;33.33;;
31990;SDS011;18508;49.386;8.370;2024-01-11T06:39:26;87.30;;;36.58;;
31990;SDS011;18508;49.386;8.370;2024-01-11T06:41:55;98.25;;;36.13;;
31990;SDS011;18508;49.386;8.370;2024-01-11T06:44:27;86.93;;;34.65;;
31990;SDS011;18508;49.386;8.370;2024-01-11T06:46:55;82.60;;;32.97;;
31990;SDS011;18508;49.386;8.370;2024-01-11T06:49:23;80.47;;;31.73;;
31990;SDS011;18508;49.386;8.370;2024-01-11T06:51:52;86.63;;;33.53;;
31990;SDS011;18508;49.386;8.370;2024-01-11T06:54:20;90.53;;;35.17;;
31990;SDS011;18508;49.386;8.370;2024-01-11T06:56:49;77.95;;;33.50;;
31990;SDS011;18508;49.386;8.370;2024-01-11T06:59:17;96.05;;;36.22;;
31990;SDS011;18508;49.386;8.370;2024-01-11T07:01:48;87.50;;;35.35;;
31990;SDS011;18508;49.386;8.370;2024-01-11T07:04:17;83.72;;;32.97;;
31990;SDS011;18508;49.386;8.370;2024-01-11T07:06:45;87.60;;;33.08;;
31990;SDS011;18508;49.386;8.370;2024-01-11T07:09:14;88.75;;;34.13;;
31990;SDS011;18508;49.386;8.370;2024-01-11T07:11:43;88.13;;;33.15;;
31990;SDS011;18508;49.386;8.370;2024-01-11T07:14:12;81.40;;;32.38;;
31990;SDS011;18508;49.386;8.370;2024-01-11T07:16:40;92.13;;;36.92;;
31990;SDS011;18508;49.386;8.370;2024-01-11T07:19:10;92.43;;;38.72;;
31990;SDS011;18508;49.386;8.370;2024-01-11T07:21:40;84.00;;;34.00;;
31990;SDS011;18508;49.386;8.370;2024-01-11T07:24:09;89.50;;;34.78;;
31990;SDS011;18508;49.386;8.370;2024-01-11T07:26:37;95.75;;;35.13;;
31990;SDS011;18508;49.386;8.370;2024-01-11T07:29:06;90.47;;;34.72;;
31990;SDS011;18508;49.386;8.370;2024-01-11T07:31:35;90.53;;;35.70;;
31990;SDS011;18508;49.386;8.370;2024-01-11T07:34:03;101.57;;;38.05;;
31990;SDS011;18508;49.386;8.370;2024-01-11T07:36:33;97.63;;;37.95;;
31990;SDS011;18508;49.386;8.370;2024-01-11T07:39:01;104.20;;;38.70;;
31990;SDS011;18508;49.386;8.370;2024-01-11T07:41:32;103.65;;;38.78;;
31990;SDS011;18508;49.386;8.370;2024-01-11T07:44:02;97.43;;;37.30;;
31990;SDS011;18508;49.386;8.370;2024-01-11T07:46:33;104.68;;;38.13;;
31990;SDS011;18508;49.386;8.370;2024-01-11T07:49:15;106.20;;;37.92;;
31990;SDS011;18508;49.386;8.370;2024-01-11T07:51:45;92.88;;;37.33;;
31990;SDS011;18508;49.386;8.370;2024-01-11T07:54:15;90.35;;;35.55;;
31990;SDS011;18508;49.386;8.370;2024-01-11T07:56:44;89.57;;;36.42;;
31990;SDS011;18508;49.386;8.370;2024-01-11T07:59:12;93.05;;;36.90;;
31990;SDS011;18508;49.386;8.370;2024-01-11T08:01:41;91.00;;;37.38;;
31990;SDS011;18508;49.386;8.370;2024-01-11T08:04:10;83.47;;;34.20;;
31990;SDS011;18508;49.386;8.370;2024-01-11T08:06:40;91.00;;;36.83;;
31990;SDS011;18508;49.386;8.370;2024-01-11T08:09:09;92.03;;;36.25;;
31990;SDS011;18508;49.386;8.370;2024-01-11T08:11:40;103.50;;;39.90;;
31990;SDS011;18508;49.386;8.370;2024-01-11T08:14:15;88.60;;;34.65;;
31990;SDS011;18508;49.386;8.370;2024-01-11T08:16:44;88.25;;;35.15;;
31990;SDS011;18508;49.386;8.370;2024-01-11T08:19:12;90.55;;;36.45;;
31990;SDS011;18508;49.386;8.370;2024-01-11T08:21:41;87.63;;;35.90;;
31990;SDS011;18508;49.386;8.370;2024-01-11T08:24:14;88.43;;;34.40;;
31990;SDS011;18508;49.386;8.370;2024-01-11T08:26:44;85.05;;;35.70;;
31990;SDS011;18508;49.386;8.370;2024-01-11T08:29:13;90.45;;;34.53;;
31990;SDS011;18508;49.386;8.370;2024-01-11T08:31:41;79.70;;;33.03;;
31990;SDS011;18508;49.386;8.370;2024-01-11T08:34:10;91.00;;;35.13;;
31990;SDS011;18508;49.386;8.370;2024-01-11T08:36:39;90.50;;;35.75;;
31990;SDS011;18508;49.386;8.370;2024-01-11T08:39:07;89.18;;;37.13;;
31990;SDS011;18508;49.386;8.370;2024-01-11T08:41:39;91.28;;;35.58;;
31990;SDS011;18508;49.386;8.370;2024-01-11T08:44:07;88.13;;;34.67;;
31990;SDS011;18508;49.386;8.370;2024-01-11T08:46:38;83.80;;;33.33;;
31990;SDS011;18508;49.386;8.370;2024-01-11T08:49:10;81.47;;;34.00;;
31990;SDS011;18508;49.386;8.370;2024-01-11T08:51:38;92.95;;;36.22;;
31990;SDS011;18508;49.386;8.370;2024-01-11T08:54:07;84.03;;;33.25;;
31990;SDS011;18508;49.386;8.370;2024-01-11T08:56:39;83.53;;;36.83;;
31990;SDS011;18508;49.386;8.370;2024-01-11T08:59:07;92.53;;;35.45;;
31990;SDS011;18508;49.386;8.370;2024-01-11T09:01:36;90.78;;;35.45;;
31990;SDS011;18508;49.386;8.370;2024-01-11T09:04:05;86.55;;;35.53;;
31990;SDS011;18508;49.386;8.370;2024-01-11T09:06:34;87.00;;;33.65;;
31990;SDS011;18508;49.386;8.370;2024-01-11T09:09:03;80.05;;;34.53;;
31990;SDS011;18508;49.386;8.370;2024-01-11T09:11:39;92.65;;;37.53;;
31990;SDS011;18508;49.386;8.370;2024-01-11T09:14:07;98.35;;;37.50;;
31990;SDS011;18508;49.386;8.370;2024-01-11T09:16:38;93.68;;;37.05;;
31990;SDS011;18508;49.386;8.370;2024-01-11T09:19:06;91.95;;;36.72;;
31990;SDS011;18508;49.386;8.370;2024-01-11T09:21:35;82.13;;;35.00;;
31990;SDS011;18508;49.386;8.370;2024-01-11T09:24:04;82.55;;;33.70;;
31990;SDS011;18508;49.386;8.370;2024-01-11T09:26:32;93.72;;;35.63;;
31990;SDS011;18508;49.386;8.370;2024-01-11T09:29:06;82.25;;;34.75;;
31990;SDS011;18508;49.386;8.370;2024-01-11T09:31:35;94.40;;;35.70;;
31990;SDS011;18508;49.386;8.370;2024-01-11T09:34:04;82.55;;;35.17;;
31990;SDS011;18508;49.386;8.370;2024-01-11T09:36:35;91.30;;;35.13;;
31990;SDS011;18508;49.386;8.370;2024-01-11T09:39:05;89.40;;;33.72;;
31990;SDS011;18508;49.386;8.370;2024-01-11T09:41:34;88.15;;;35.63;;
31990;SDS011;18508;49.386;8.370;2024-01-11T09:44:08;81.20;;;33.33;;
31990;SDS011;18508;49.386;8.370;2024-01-11T09:46:37;84.20;;;34.90;;
31990;SDS011;18508;49.386;8.370;2024-01-11T09:49:05;88.55;;;34.90;;
31990;SDS011;18508;49.386;8.370;2024-01-11T09:51:35;85.57;;;34.55;;
31990;SDS011;18508;49.386;8.370;2024-01-11T09:54:07;79.63;;;34.50;;
31990;SDS011;18508;49.386;8.370;2024-01-11T09:56:40;80.38;;;33.58;;
31990;SDS011;18508;49.386;8.370;2024-01-11T09:59:11;81.30;;;34.97;;
31990;SDS011;18508;49.386;8.370;2024-01-11T10:01:40;92.88;;;35.13;;
31990;SDS011;18508;49.386;8.370;2024-01-11T10:04:09;83.63;;;33.75;;
31990;SDS011;18508;49.386;8.370;2024-01-11T10:06:38;84.80;;;36.65;;
31990;SDS011;18508;49.386;8.370;2024-01-11T10:09:07;93.07;;;36.60;;
31990;SDS011;18508;49.386;8.370;2024-01-11T10:11:35;85.53;;;36.20;;
31990;SDS011;18508;49.386;8.370;2024-01-11T10:14:04;86.00;;;35.00;;
31990;SDS011;18508;49.386;8.370;2024-01-11T10:16:35;85.07;;;37.88;;
31990;SDS011;18508;49.386;8.370;2024-01-11T10:19:03;96.47;;;38.40;;
31990;SDS011;18508;49.386;8.370;2024-01-11T10:21:32;88.07;;;35.25;;
31990;SDS011;18508;49.386;8.370;2024-01-11T10:24:03;83.57;;;35.50;;
31990;SDS011;18508;49.386;8.370;2024-01-11T10:26:32;89.25;;;35.03;;
31990;SDS011;18508;49.386;8.370;2024-01-11T10:29:01;88.40;;;35.28;;
31990;SDS011;18508;49.386;8.370;2024-01-11T10:31:32;90.15;;;33.78;;
31990;SDS011;18508;49.386;8.370;2024-01-11T10:34:06;83.65;;;37.15;;
31990;SDS011;18508;49.386;8.370;2024-01-11T10:36:35;85.55;;;36.75;;
31990;SDS011;18508;49.386;8.370;2024-01-11T10:39:03;91.35;;;34.50;;
31990;SDS011;18508;49.386;8.370;2024-01-11T10:41:39;87.13;;;34.97;;
31990;SDS011;18508;49.386;8.370;2024-01-11T10:44:09;86.50;;;34.42;;
31990;SDS011;18508;49.386;8.370;2024-01-11T10:46:47;82.30;;;34.33;;
31990;SDS011;18508;49.386;8.370;2024-01-11T10:49:18;78.72;;;34.38;;
31990;SDS011;18508;49.386;8.370;2024-01-11T10:51:49;89.28;;;35.53;;
31990;SDS011;18508;49.386;8.370;2024-01-11T10:54:23;92.20;;;36.70;;
31990;SDS011;18508;49.386;8.370;2024-01-11T10:56:52;82.47;;;35.30;;
31990;SDS011;18508;49.386;8.370;2024-01-11T10:59:22;87.07;;;35.70;;
31990;SDS011;18508;49.386;8.370;2024-01-11T11:01:54;84.03;;;35.72;;
31990;SDS011;18508;49.386;8.370;2024-01-11T11:04:25;76.60;;;34.13;;
31990;SDS011;18508;49.386;8.370;2024-01-11T11:06:54;89.53;;;35.63;;
31990;SDS011;18508;49.386;8.370;2024-01-11T11:09:24;76.75;;;33.72;;
31990;SDS011;18508;49.386;8.370;2024-01-11T11:11:54;90.03;;;35.55;;
31990;SDS011;18508;49.386;8.370;2024-01-11T11:14:25;81.57;;;35.53;;
31990;SDS011;18508;49.386;8.370;2024-01-11T11:16:57;80.18;;;35.20;;
31990;SDS011;18508;49.386;8.370;2024-01-11T11:19:25;89.72;;;35.92;;
31990;SDS011;18508;49.386;8.370;2024-01-11T11:21:54;85.38;;;35.97;;
31990;SDS011;18508;49.386;8.370;2024-01-11T11:24:22;83.63;;;35.85;;
31990;SDS011;18508;49.386;8.370;2024-01-11T11:26:51;82.72;;;36.33;;
31990;SDS011;18508;49.386;8.370;2024-01-11T11:29:23;84.20;;;35.33;;
31990;SDS011;18508;49.386;8.370;2024-01-11T11:31:52;76.45;;;34.80;;
31990;SDS011;18508;49.386;8.370;2024-01-11T11:34:22;78.10;;;33.88;;
31990;SDS011;18508;49.386;8.370;2024-01-11T11:37:08;83.70;;;36.88;;
31990;SDS011;18508;49.386;8.370;2024-01-11T11:39:37;81.72;;;33.42;;
31990;SDS011;18508;49.386;8.370;2024-01-11T11:42:06;83.45;;;35.47;;
31990;SDS011;18508;49.386;8.370;2024-01-11T11:44:34;83.97;;;35.33;;
31990;SDS011;18508;49.386;8.370;2024-01-11T11:47:19;81.35;;;35.13;;
31990;SDS011;18508;49.386;8.370;2024-01-11T11:49:58;81.93;;;34.72;;
31990;SDS011;18508;49.386;8.370;2024-01-11T11:52:34;82.78;;;33.50;;
31990;SDS011;18508;49.386;8.370;2024-01-11T11:55:05;75.68;;;32.60;;
31990;SDS011;18508;49.386;8.370;2024-01-11T11:57:35;81.70;;;33.75;;
31990;SDS011;18508;49.386;8.370;2024-01-11T12:00:04;78.32;;;33.80;;
31990;SDS011;18508;49.386;8.370;2024-01-11T12:02:33;80.35;;;35.20;;
31990;SDS011;18508;49.386;8.370;2024-01-11T12:05:05;78.53;;;34.67;;
31990;SDS011;18508;49.386;8.370;2024-01-11T12:07:34;78.40;;;34.10;;
31990;SDS011;18508;49.386;8.370;2024-01-11T12:10:04;80.00;;;34.65;;
31990;SDS011;18508;49.386;8.370;2024-01-11T12:12:33;81.97;;;34.72;;
31990;SDS011;18508;49.386;8.370;2024-01-11T12:15:02;83.78;;;34.90;;
31990;SDS011;18508;49.386;8.370;2024-01-11T12:17:31;78.53;;;34.90;;
31990;SDS011;18508;49.386;8.370;2024-01-11T12:20:00;81.50;;;33.45;;
31990;SDS011;18508;49.386;8.370;2024-01-11T12:22:30;80.72;;;34.03;;
31990;SDS011;18508;49.386;8.370;2024-01-11T12:24:58;78.82;;;33.72;;
31990;SDS011;18508;49.386;8.370;2024-01-11T12:27:27;77.60;;;31.20;;
31990;SDS011;18508;49.386;8.370;2024-01-11T12:29:55;77.75;;;33.72;;
31990;SDS011;18508;49.386;8.370;2024-01-11T12:32:25;82.65;;;33.63;;
31990;SDS011;18508;49.386;8.370;2024-01-11T12:34:54;82.13;;;34.10;;
31990;SDS011;18508;49.386;8.370;2024-01-11T12:37:22;85.57;;;34.42;;
31990;SDS011;18508;49.386;8.370;2024-01-11T12:39:57;76.18;;;32.85;;
31990;SDS011;18508;49.386;8.370;2024-01-11T12:42:26;75.60;;;36.20;;
31990;SDS011;18508;49.386;8.370;2024-01-11T12:44:56;75.45;;;33.22;;
31990;SDS011;18508;49.386;8.370;2024-01-11T12:47:26;75.38;;;32.63;;
31990;SDS011;18508;49.386;8.370;2024-01-11T12:49:55;77.57;;;33.40;;
31990;SDS011;18508;49.386;8.370;2024-01-11T12:52:26;76.15;;;33.30;;
31990;SDS011;18508;49.386;8.370;2024-01-11T12:54:57;81.35;;;34.22;;
31990;SDS011;18508;49.386;8.370;2024-01-11T12:57:26;78.80;;;33.80;;
31990;SDS011;18508;49.386;8.370;2024-01-11T12:59:56;82.30;;;34.03;;
31990;SDS011;18508;49.386;8.370;2024-01-11T13:02:37;76.38;;;34.15;;
31990;SDS011;18508;49.386;8.370;2024-01-11T13:05:06;78.97;;;36.47;;
31990;SDS011;18508;49.386;8.370;2024-01-11T13:07:36;72.38;;;32.42;;
31990;SDS011;18508;49.386;8.370;2024-01-11T13:10:07;80.20;;;35.80;;
31990;SDS011;18508;49.386;8.370;2024-01-11T13:12:36;71.22;;;29.92;;
31990;SDS011;18508;49.386;8.370;2024-01-11T13:15:04;67.93;;;31.33;;
31990;SDS011;18508;49.386;8.370;2024-01-11T13:17:33;76.35;;;34.78;;
31990;SDS011;18508;49.386;8.370;2024-01-11T13:20:02;77.82;;;33.20;;
31990;SDS011;18508;49.386;8.370;2024-01-11T13:22:30;72.20;;;31.98;;
31990;SDS011;18508;49.386;8.370;2024-01-11T13:24:59;86.15;;;34.20;;
31990;SDS011;18508;49.386;8.370;2024-01-11T13:27:29;76.25;;;33.85;;
31990;SDS011;18508;49.386;8.370;2024-01-11T13:29:57;77.88;;;33.88;;
31990;SDS011;18508;49.386;8.370;2024-01-11T13:32:26;79.65;;;32.55;;
31990;SDS011;18508;49.386;8.370;2024-01-11T13:34:55;73.32;;;32.05;;
31990;SDS011;18508;49.386;8.370;2024-01-11T13:37:25;68.35;;;31.73;;
31990;SDS011;18508;49.386;8.370;2024-01-11T13:39:55;66.05;;;29.83;;
31990;SDS011;18508;49.386;8.370;2024-01-11T13:42:24;74.55;;;32.80;;
31990;SDS011;18508;49.386;8.370;2024-01-11T13:44:54;71.85;;;31.52;;
31990;SDS011;18508;49.386;8.370;2024-01-11T13:47:22;76.97;;;33.45;;
31990;SDS011;18508;49.386;8.370;2024-01-11T13:49:50;72.53;;;32.10;;
31990;SDS011;18508;49.386;8.370;2024-01-11T13:52:19;78.60;;;33.15;;
31990;SDS011;18508;49.386;8.370;2024-01-11T13:54:48;75.93;;;34.05;;
31990;SDS011;18508;49.386;8.370;2024-01-11T13:57:16;75.55;;;32.50;;
31990;SDS011;18508;49.386;8.370;2024-01-11T13:59:45;68.75;;;31.58;;
31990;SDS011;18508;49.386;8.370;2024-01-11T14:02:15;69.65;;;32.45;;
31990;SDS011;18508;49.386;8.370;2024-01-11T14:04:43;73.70;;;31.80;;
31990;SDS011;18508;49.386;8.370;2024-01-11T14:07:12;68.43;;;32.13;;
31990;SDS011;18508;49.386;8.370;2024-01-11T14:09:41;70.95;;;31.90;;
31990;SDS011;18508;49.386;8.370;2024-01-11T14:12:10;69.15;;;32.08;;
31990;SDS011;18508;49.386;8.370;2024-01-11T14:14:38;69.60;;;31.50;;
31990;SDS011;18508;49.386;8.370;2024-01-11T14:17:07;68.35;;;30.35;;
31990;SDS011;18508;49.386;8.370;2024-01-11T14:19:37;68.15;;;29.17;;
31990;SDS011;18508;49.386;8.370;2024-01-11T14:22:06;70.10;;;30.75;;
31990;SDS011;18508;49.386;8.370;2024-01-11T14:24:34;60.25;;;26.63;;
31990;SDS011;18508;49.386;8.370;2024-01-11T14:27:03;74.97;;;30.30;;
31990;SDS011;18508;49.386;8.370;2024-01-11T14:32:06;60.58;;;28.20;;
31990;SDS011;18508;49.386;8.370;2024-01-11T14:34:49;65.75;;;28.90;;
31990;SDS011;18508;49.386;8.370;2024-01-11T14:37:18;72.18;;;29.77;;